sensor_id;sensor_type;location;lat;lon;timestamp;P1;durP1;ratioP1;P2;durP2;ratioP2
71108;SDS011;59614;51.012;-1.648;2023-06-22T00:01:47;12.10;;;6.63;;
71108;SDS011;59614;51.012;-1.648;2023-06-22T00:04:13;9.77;;;6.35;;
71108;SDS011;59614;51.012;-1.648;2023-06-22T00:06:38;11.25;;;6.38;;
71108;SDS011;59614;51.012;-1.648;2023-06-22T00:09:04;10.85;;;6.43;;
71108;SDS011;59614;51.012;-1.648;2023-06-22T00:11:29;13.07;;;7.38;;
71108;SDS011;59614;51.012;-1.648;2023-06-22T00:13:56;10.50;;;7.30;;
71108;SDS011;59614;51.012;-1.648;2023-06-22T00:16:21;11.32;;;6.93;;
71108;SDS011;59614;51.012;-1.648;2023-06-22T00:18:47;13.27;;;7.43;;
71108;SDS011;59614;51.012;-1.648;2023-06-22T00:21:13;8.68;;;6.63;;
71108;SDS011;59614;51.012;-1.648;2023-06-22T00:23:39;11.85;;;6.90;;
71108;SDS011;59614;51.012;-1.648;2023-06-22T00:26:04;10.05;;;7.22;;
71108;SDS011;59614;51.012;-1.648;2023-06-22T00:28:30;13.30;;;7.85;;
71108;SDS011;59614;51.012;-1.648;2023-06-22T00:30:55;14.15;;;8.02;;
71108;SDS011;59614;51.012;-1.648;2023-06-22T00:33:21;13.35;;;7.95;;
71108;SDS011;59614;51.012;-1.648;2023-06-22T00:35:46;16.10;;;8.70;;
71108;SDS011;59614;51.012;-1.648;2023-06-22T00:38:12;14.18;;;8.40;;
71108;SDS011;59614;51.012;-1.648;2023-06-22T00:40:38;14.35;;;8.90;;
71108;SDS011;59614;51.012;-1.648;2023-06-22T00:43:04;14.60;;;8.73;;
71108;SDS011;59614;51.012;-1.648;2023-06-22T00:45:30;16.37;;;9.07;;
71108;SDS011;59614;51.012;-1.648;2023-06-22T00:47:56;14.10;;;8.73;;
71108;SDS011;59614;51.012;-1.648;2023-06-22T00:50:25;12.75;;;8.85;;
71108;SDS011;59614;51.012;-1.648;2023-06-22T00:52:52;14.32;;;8.48;;
71108;SDS011;59614;51.012;-1.648;2023-06-22T00:55:21;14.30;;;8.63;;
71108;SDS011;59614;51.012;-1.648;2023-06-22T00:57:48;16.55;;;8.45;;
71108;SDS011;59614;51.012;-1.648;2023-06-22T01:00:16;14.10;;;8.70;;
71108;SDS011;59614;51.012;-1.648;2023-06-22T01:02:44;15.32;;;7.93;;
71108;SDS011;59614;51.012;-1.648;2023-06-22T01:05:11;11.13;;;7.40;;
71108;SDS011;59614;51.012;-1.648;2023-06-22T01:07:52;10.75;;;7.35;;
71108;SDS011;59614;51.012;-1.648;2023-06-22T01:13:56;16.40;;;8.07;;
71108;SDS011;59614;51.012;-1.648;2023-06-22T01:16:31;14.13;;;7.70;;
71108;SDS011;59614;51.012;-1.648;2023-06-22T01:19:20;12.25;;;7.70;;
71108;SDS011;59614;51.012;-1.648;2023-06-22T01:21:53;13.73;;;8.40;;
71108;SDS011;59614;51.012;-1.648;2023-06-22T01:24:37;13.73;;;7.68;;
71108;SDS011;59614;51.012;-1.648;2023-06-22T01:29:51;12.65;;;7.30;;
71108;SDS011;59614;51.012;-1.648;2023-06-22T01:32:26;11.07;;;6.63;;
71108;SDS011;59614;51.012;-1.648;2023-06-22T01:34:55;11.50;;;6.78;;
71108;SDS011;59614;51.012;-1.648;2023-06-22T01:37:22;17.25;;;8.65;;
71108;SDS011;59614;51.012;-1.648;2023-06-22T01:39:48;14.80;;;7.57;;
71108;SDS011;59614;51.012;-1.648;2023-06-22T01:42:15;11.57;;;7.80;;
71108;SDS011;59614;51.012;-1.648;2023-06-22T01:44:41;12.25;;;7.53;;
71108;SDS011;59614;51.012;-1.648;2023-06-22T01:47:08;12.20;;;7.55;;
71108;SDS011;59614;51.012;-1.648;2023-06-22T01:49:34;12.05;;;7.40;;
71108;SDS011;59614;51.012;-1.648;2023-06-22T01:51:59;12.13;;;8.38;;
71108;SDS011;59614;51.012;-1.648;2023-06-22T01:54:25;18.00;;;9.52;;
71108;SDS011;59614;51.012;-1.648;2023-06-22T01:56:50;15.63;;;8.98;;
71108;SDS011;59614;51.012;-1.648;2023-06-22T01:59:25;12.00;;;8.57;;
71108;SDS011;59614;51.012;-1.648;2023-06-22T02:01:59;16.90;;;9.07;;
71108;SDS011;59614;51.012;-1.648;2023-06-22T02:07:17;15.38;;;10.25;;
71108;SDS011;59614;51.012;-1.648;2023-06-22T02:09:45;16.33;;;9.75;;
71108;SDS011;59614;51.012;-1.648;2023-06-22T02:14:42;20.08;;;10.15;;
71108;SDS011;59614;51.012;-1.648;2023-06-22T02:17:08;16.45;;;9.30;;
71108;SDS011;59614;51.012;-1.648;2023-06-22T02:19:37;17.95;;;10.02;;
71108;SDS011;59614;51.012;-1.648;2023-06-22T02:22:03;17.25;;;9.70;;
71108;SDS011;59614;51.012;-1.648;2023-06-22T02:24:29;16.55;;;9.68;;
71108;SDS011;59614;51.012;-1.648;2023-06-22T02:26:57;15.85;;;9.77;;
71108;SDS011;59614;51.012;-1.648;2023-06-22T02:29:23;18.33;;;10.48;;
71108;SDS011;59614;51.012;-1.648;2023-06-22T02:31:49;24.98;;;10.27;;
71108;SDS011;59614;51.012;-1.648;2023-06-22T02:34:14;22.88;;;11.20;;
71108;SDS011;59614;51.012;-1.648;2023-06-22T02:36:43;36.75;;;12.20;;
71108;SDS011;59614;51.012;-1.648;2023-06-22T02:39:22;20.10;;;10.30;;
71108;SDS011;59614;51.012;-1.648;2023-06-22T02:41:52;17.15;;;8.77;;
71108;SDS011;59614;51.012;-1.648;2023-06-22T02:44:19;13.68;;;8.40;;
71108;SDS011;59614;51.012;-1.648;2023-06-22T02:46:46;47.95;;;10.40;;
71108;SDS011;59614;51.012;-1.648;2023-06-22T02:49:12;170.55;;;10.48;;
71108;SDS011;59614;51.012;-1.648;2023-06-22T02:51:38;15.98;;;8.98;;
71108;SDS011;59614;51.012;-1.648;2023-06-22T02:54:10;29.17;;;8.85;;
71108;SDS011;59614;51.012;-1.648;2023-06-22T02:56:35;136.63;;;12.27;;
71108;SDS011;59614;51.012;-1.648;2023-06-22T02:59:01;159.10;;;10.77;;
71108;SDS011;59614;51.012;-1.648;2023-06-22T03:01:27;73.38;;;9.70;;
71108;SDS011;59614;51.012;-1.648;2023-06-22T03:03:55;10.18;;;7.38;;
71108;SDS011;59614;51.012;-1.648;2023-06-22T03:06:21;12.35;;;8.07;;
71108;SDS011;59614;51.012;-1.648;2023-06-22T03:08:53;13.73;;;8.55;;
71108;SDS011;59614;51.012;-1.648;2023-06-22T03:11:24;11.75;;;7.32;;
71108;SDS011;59614;51.012;-1.648;2023-06-22T03:13:50;11.52;;;8.13;;
71108;SDS011;59614;51.012;-1.648;2023-06-22T03:16:17;12.70;;;8.07;;
71108;SDS011;59614;51.012;-1.648;2023-06-22T03:18:43;9.98;;;7.50;;
71108;SDS011;59614;51.012;-1.648;2023-06-22T03:21:08;8.60;;;6.63;;
71108;SDS011;59614;51.012;-1.648;2023-06-22T03:23:34;8.88;;;6.63;;
71108;SDS011;59614;51.012;-1.648;2023-06-22T03:25:59;13.65;;;8.73;;
71108;SDS011;59614;51.012;-1.648;2023-06-22T03:28:25;15.45;;;8.73;;
71108;SDS011;59614;51.012;-1.648;2023-06-22T03:30:50;15.95;;;8.75;;
71108;SDS011;59614;51.012;-1.648;2023-06-22T03:33:15;13.95;;;8.95;;
71108;SDS011;59614;51.012;-1.648;2023-06-22T03:35:41;11.30;;;7.85;;
71108;SDS011;59614;51.012;-1.648;2023-06-22T03:38:07;13.80;;;7.45;;
71108;SDS011;59614;51.012;-1.648;2023-06-22T03:40:32;10.70;;;6.55;;
71108;SDS011;59614;51.012;-1.648;2023-06-22T03:42:57;12.23;;;7.43;;
71108;SDS011;59614;51.012;-1.648;2023-06-22T03:45:23;21.60;;;8.45;;
71108;SDS011;59614;51.012;-1.648;2023-06-22T03:47:48;259.83;;;11.75;;
71108;SDS011;59614;51.012;-1.648;2023-06-22T03:50:14;13.93;;;8.45;;
71108;SDS011;59614;51.012;-1.648;2023-06-22T03:52:40;12.95;;;8.80;;
71108;SDS011;59614;51.012;-1.648;2023-06-22T03:55:05;16.60;;;8.55;;
71108;SDS011;59614;51.012;-1.648;2023-06-22T03:57:32;11.27;;;7.03;;
71108;SDS011;59614;51.012;-1.648;2023-06-22T03:59:57;10.93;;;7.95;;
71108;SDS011;59614;51.012;-1.648;2023-06-22T04:02:23;13.38;;;7.78;;
71108;SDS011;59614;51.012;-1.648;2023-06-22T04:04:49;11.60;;;8.05;;
71108;SDS011;59614;51.012;-1.648;2023-06-22T04:07:14;9.98;;;7.35;;
71108;SDS011;59614;51.012;-1.648;2023-06-22T04:09:39;10.70;;;7.00;;
71108;SDS011;59614;51.012;-1.648;2023-06-22T04:12:05;9.48;;;6.60;;
71108;SDS011;59614;51.012;-1.648;2023-06-22T04:14:32;8.87;;;6.50;;
71108;SDS011;59614;51.012;-1.648;2023-06-22T04:16:58;9.20;;;7.03;;
71108;SDS011;59614;51.012;-1.648;2023-06-22T04:19:24;10.50;;;7.45;;
71108;SDS011;59614;51.012;-1.648;2023-06-22T04:21:49;10.93;;;7.25;;
71108;SDS011;59614;51.012;-1.648;2023-06-22T04:24:15;10.23;;;7.47;;
71108;SDS011;59614;51.012;-1.648;2023-06-22T04:26:41;10.52;;;7.57;;
71108;SDS011;59614;51.012;-1.648;2023-06-22T04:29:12;9.75;;;6.97;;
71108;SDS011;59614;51.012;-1.648;2023-06-22T04:31:37;9.95;;;6.93;;
71108;SDS011;59614;51.012;-1.648;2023-06-22T04:34:03;9.10;;;7.13;;
71108;SDS011;59614;51.012;-1.648;2023-06-22T04:36:36;8.98;;;6.47;;
71108;SDS011;59614;51.012;-1.648;2023-06-22T04:39:11;9.77;;;6.28;;
71108;SDS011;59614;51.012;-1.648;2023-06-22T04:41:37;8.40;;;6.10;;
71108;SDS011;59614;51.012;-1.648;2023-06-22T04:46:35;14.43;;;8.63;;
71108;SDS011;59614;51.012;-1.648;2023-06-22T04:49:03;16.63;;;10.13;;
71108;SDS011;59614;51.012;-1.648;2023-06-22T04:51:39;16.90;;;8.85;;
71108;SDS011;59614;51.012;-1.648;2023-06-22T04:54:06;17.75;;;9.85;;
71108;SDS011;59614;51.012;-1.648;2023-06-22T04:56:32;12.90;;;8.98;;
71108;SDS011;59614;51.012;-1.648;2023-06-22T04:58:58;14.23;;;8.93;;
71108;SDS011;59614;51.012;-1.648;2023-06-22T05:01:24;12.48;;;8.32;;
71108;SDS011;59614;51.012;-1.648;2023-06-22T05:03:50;14.65;;;9.25;;
71108;SDS011;59614;51.012;-1.648;2023-06-22T05:06:20;15.85;;;9.07;;
71108;SDS011;59614;51.012;-1.648;2023-06-22T05:08:46;13.88;;;8.30;;
71108;SDS011;59614;51.012;-1.648;2023-06-22T05:11:12;20.38;;;9.68;;
71108;SDS011;59614;51.012;-1.648;2023-06-22T05:13:37;19.30;;;10.63;;
71108;SDS011;59614;51.012;-1.648;2023-06-22T05:16:03;22.15;;;9.68;;
71108;SDS011;59614;51.012;-1.648;2023-06-22T05:18:29;21.58;;;10.50;;
71108;SDS011;59614;51.012;-1.648;2023-06-22T05:20:55;18.55;;;10.30;;
71108;SDS011;59614;51.012;-1.648;2023-06-22T05:23:20;20.00;;;10.95;;
71108;SDS011;59614;51.012;-1.648;2023-06-22T05:25:46;20.92;;;11.18;;
71108;SDS011;59614;51.012;-1.648;2023-06-22T05:28:11;19.25;;;10.23;;
71108;SDS011;59614;51.012;-1.648;2023-06-22T05:30:37;25.83;;;12.20;;
71108;SDS011;59614;51.012;-1.648;2023-06-22T05:33:03;22.13;;;12.07;;
71108;SDS011;59614;51.012;-1.648;2023-06-22T05:35:28;29.50;;;12.27;;
71108;SDS011;59614;51.012;-1.648;2023-06-22T05:37:54;18.70;;;11.55;;
71108;SDS011;59614;51.012;-1.648;2023-06-22T05:40:20;39.30;;;12.02;;
71108;SDS011;59614;51.012;-1.648;2023-06-22T05:42:46;22.90;;;12.20;;
71108;SDS011;59614;51.012;-1.648;2023-06-22T05:45:12;16.83;;;10.50;;
71108;SDS011;59614;51.012;-1.648;2023-06-22T05:47:37;31.33;;;11.90;;
71108;SDS011;59614;51.012;-1.648;2023-06-22T05:50:03;17.15;;;9.25;;
71108;SDS011;59614;51.012;-1.648;2023-06-22T05:52:31;16.35;;;7.80;;
71108;SDS011;59614;51.012;-1.648;2023-06-22T05:54:57;11.38;;;7.32;;
71108;SDS011;59614;51.012;-1.648;2023-06-22T05:57:23;10.80;;;7.22;;
71108;SDS011;59614;51.012;-1.648;2023-06-22T05:59:48;9.10;;;7.15;;
71108;SDS011;59614;51.012;-1.648;2023-06-22T06:02:14;10.52;;;7.20;;
71108;SDS011;59614;51.012;-1.648;2023-06-22T06:04:39;16.60;;;7.63;;
71108;SDS011;59614;51.012;-1.648;2023-06-22T06:07:05;9.35;;;6.97;;
71108;SDS011;59614;51.012;-1.648;2023-06-22T06:09:30;8.23;;;7.00;;
71108;SDS011;59614;51.012;-1.648;2023-06-22T06:11:56;7.15;;;6.00;;
71108;SDS011;59614;51.012;-1.648;2023-06-22T06:14:21;9.73;;;6.53;;
71108;SDS011;59614;51.012;-1.648;2023-06-22T06:16:48;14.68;;;7.45;;
71108;SDS011;59614;51.012;-1.648;2023-06-22T06:19:14;8.27;;;6.53;;
71108;SDS011;59614;51.012;-1.648;2023-06-22T06:21:40;10.07;;;7.45;;
71108;SDS011;59614;51.012;-1.648;2023-06-22T06:24:05;10.05;;;7.15;;
71108;SDS011;59614;51.012;-1.648;2023-06-22T06:26:31;8.52;;;5.97;;
71108;SDS011;59614;51.012;-1.648;2023-06-22T06:28:58;12.32;;;7.93;;
71108;SDS011;59614;51.012;-1.648;2023-06-22T06:31:25;9.33;;;7.27;;
71108;SDS011;59614;51.012;-1.648;2023-06-22T06:33:53;8.75;;;6.80;;
71108;SDS011;59614;51.012;-1.648;2023-06-22T06:36:19;12.57;;;8.73;;
71108;SDS011;59614;51.012;-1.648;2023-06-22T06:38:45;18.48;;;10.57;;
71108;SDS011;59614;51.012;-1.648;2023-06-22T06:41:12;21.23;;;10.30;;
71108;SDS011;59614;51.012;-1.648;2023-06-22T06:43:38;26.75;;;11.60;;
71108;SDS011;59614;51.012;-1.648;2023-06-22T06:46:03;17.20;;;10.45;;
71108;SDS011;59614;51.012;-1.648;2023-06-22T06:48:29;17.90;;;11.40;;
71108;SDS011;59614;51.012;-1.648;2023-06-22T06:50:54;15.63;;;9.63;;
71108;SDS011;59614;51.012;-1.648;2023-06-22T06:53:20;14.38;;;10.00;;
71108;SDS011;59614;51.012;-1.648;2023-06-22T06:55:45;17.52;;;10.73;;
71108;SDS011;59614;51.012;-1.648;2023-06-22T06:58:11;16.85;;;10.25;;
71108;SDS011;59614;51.012;-1.648;2023-06-22T07:00:38;15.82;;;10.73;;
71108;SDS011;59614;51.012;-1.648;2023-06-22T07:03:04;18.77;;;11.20;;
71108;SDS011;59614;51.012;-1.648;2023-06-22T07:05:29;16.13;;;9.88;;
71108;SDS011;59614;51.012;-1.648;2023-06-22T07:07:55;13.70;;;9.20;;
71108;SDS011;59614;51.012;-1.648;2023-06-22T07:10:20;17.40;;;10.05;;
71108;SDS011;59614;51.012;-1.648;2023-06-22T07:12:46;21.17;;;11.77;;
71108;SDS011;59614;51.012;-1.648;2023-06-22T07:15:11;17.40;;;10.68;;
71108;SDS011;59614;51.012;-1.648;2023-06-22T07:17:38;12.88;;;9.02;;
71108;SDS011;59614;51.012;-1.648;2023-06-22T07:20:05;22.50;;;12.50;;
71108;SDS011;59614;51.012;-1.648;2023-06-22T07:22:38;18.42;;;10.77;;
71108;SDS011;59614;51.012;-1.648;2023-06-22T07:25:08;18.92;;;11.80;;
71108;SDS011;59614;51.012;-1.648;2023-06-22T07:27:38;16.50;;;10.57;;
71108;SDS011;59614;51.012;-1.648;2023-06-22T07:30:08;18.15;;;11.73;;
71108;SDS011;59614;51.012;-1.648;2023-06-22T07:32:34;16.90;;;10.70;;
71108;SDS011;59614;51.012;-1.648;2023-06-22T07:34:59;16.25;;;10.43;;
71108;SDS011;59614;51.012;-1.648;2023-06-22T07:37:25;16.98;;;10.48;;
71108;SDS011;59614;51.012;-1.648;2023-06-22T07:39:52;19.63;;;11.43;;
71108;SDS011;59614;51.012;-1.648;2023-06-22T07:42:18;21.60;;;11.18;;
71108;SDS011;59614;51.012;-1.648;2023-06-22T07:44:44;18.75;;;11.10;;
71108;SDS011;59614;51.012;-1.648;2023-06-22T07:47:10;20.70;;;11.55;;
71108;SDS011;59614;51.012;-1.648;2023-06-22T07:49:35;17.30;;;10.30;;
71108;SDS011;59614;51.012;-1.648;2023-06-22T07:52:00;20.55;;;12.15;;
71108;SDS011;59614;51.012;-1.648;2023-06-22T07:54:26;19.08;;;11.65;;
71108;SDS011;59614;51.012;-1.648;2023-06-22T07:56:52;20.02;;;12.02;;
71108;SDS011;59614;51.012;-1.648;2023-06-22T07:59:17;19.77;;;11.90;;
71108;SDS011;59614;51.012;-1.648;2023-06-22T08:01:43;18.23;;;10.43;;
71108;SDS011;59614;51.012;-1.648;2023-06-22T08:04:08;15.40;;;10.93;;
71108;SDS011;59614;51.012;-1.648;2023-06-22T08:06:34;17.33;;;12.00;;
71108;SDS011;59614;51.012;-1.648;2023-06-22T08:08:59;19.98;;;12.60;;
71108;SDS011;59614;51.012;-1.648;2023-06-22T08:11:24;17.65;;;12.00;;
71108;SDS011;59614;51.012;-1.648;2023-06-22T08:13:50;16.15;;;10.95;;
71108;SDS011;59614;51.012;-1.648;2023-06-22T08:16:16;18.63;;;12.00;;
71108;SDS011;59614;51.012;-1.648;2023-06-22T08:18:42;16.65;;;10.43;;
71108;SDS011;59614;51.012;-1.648;2023-06-22T08:21:07;15.40;;;11.07;;
71108;SDS011;59614;51.012;-1.648;2023-06-22T08:23:32;15.50;;;11.05;;
71108;SDS011;59614;51.012;-1.648;2023-06-22T08:25:58;18.95;;;11.07;;
71108;SDS011;59614;51.012;-1.648;2023-06-22T08:28:23;14.05;;;9.57;;
71108;SDS011;59614;51.012;-1.648;2023-06-22T08:30:49;16.13;;;10.55;;
71108;SDS011;59614;51.012;-1.648;2023-06-22T08:33:14;16.30;;;10.80;;
71108;SDS011;59614;51.012;-1.648;2023-06-22T08:35:40;19.00;;;9.80;;
71108;SDS011;59614;51.012;-1.648;2023-06-22T08:38:05;21.73;;;11.07;;
71108;SDS011;59614;51.012;-1.648;2023-06-22T08:40:30;13.57;;;10.35;;
71108;SDS011;59614;51.012;-1.648;2023-06-22T08:42:56;15.75;;;10.52;;
71108;SDS011;59614;51.012;-1.648;2023-06-22T08:45:21;16.05;;;10.50;;
71108;SDS011;59614;51.012;-1.648;2023-06-22T08:47:47;13.93;;;10.07;;
71108;SDS011;59614;51.012;-1.648;2023-06-22T08:50:12;13.95;;;9.70;;
71108;SDS011;59614;51.012;-1.648;2023-06-22T08:52:38;13.95;;;9.30;;
71108;SDS011;59614;51.012;-1.648;2023-06-22T08:55:07;13.10;;;8.32;;
71108;SDS011;59614;51.012;-1.648;2023-06-22T08:57:34;15.40;;;9.60;;
71108;SDS011;59614;51.012;-1.648;2023-06-22T09:00:02;11.10;;;8.15;;
71108;SDS011;59614;51.012;-1.648;2023-06-22T09:02:30;13.32;;;8.98;;
71108;SDS011;59614;51.012;-1.648;2023-06-22T09:04:56;9.80;;;7.10;;
71108;SDS011;59614;51.012;-1.648;2023-06-22T09:07:22;11.93;;;7.35;;
71108;SDS011;59614;51.012;-1.648;2023-06-22T09:09:49;10.73;;;8.15;;
71108;SDS011;59614;51.012;-1.648;2023-06-22T09:12:15;9.10;;;7.03;;
71108;SDS011;59614;51.012;-1.648;2023-06-22T09:14:41;10.10;;;6.90;;
71108;SDS011;59614;51.012;-1.648;2023-06-22T09:17:06;10.43;;;7.38;;
71108;SDS011;59614;51.012;-1.648;2023-06-22T09:19:32;8.40;;;6.50;;
71108;SDS011;59614;51.012;-1.648;2023-06-22T09:21:58;9.95;;;5.82;;
71108;SDS011;59614;51.012;-1.648;2023-06-22T09:24:23;8.90;;;6.38;;
71108;SDS011;59614;51.012;-1.648;2023-06-22T09:26:48;8.80;;;5.63;;
71108;SDS011;59614;51.012;-1.648;2023-06-22T09:29:14;10.82;;;6.55;;
71108;SDS011;59614;51.012;-1.648;2023-06-22T09:31:39;10.88;;;6.72;;
71108;SDS011;59614;51.012;-1.648;2023-06-22T09:34:05;10.75;;;6.78;;
71108;SDS011;59614;51.012;-1.648;2023-06-22T09:36:30;8.45;;;6.10;;
71108;SDS011;59614;51.012;-1.648;2023-06-22T09:38:55;7.45;;;5.95;;
71108;SDS011;59614;51.012;-1.648;2023-06-22T09:41:23;8.45;;;5.53;;
71108;SDS011;59614;51.012;-1.648;2023-06-22T09:43:49;9.15;;;5.53;;
71108;SDS011;59614;51.012;-1.648;2023-06-22T09:46:15;7.57;;;4.97;;
71108;SDS011;59614;51.012;-1.648;2023-06-22T09:48:41;12.23;;;5.80;;
71108;SDS011;59614;51.012;-1.648;2023-06-22T09:51:06;23.58;;;7.45;;
71108;SDS011;59614;51.012;-1.648;2023-06-22T09:53:31;6.60;;;5.30;;
71108;SDS011;59614;51.012;-1.648;2023-06-22T09:55:57;7.57;;;4.75;;
71108;SDS011;59614;51.012;-1.648;2023-06-22T09:58:22;8.32;;;5.15;;
71108;SDS011;59614;51.012;-1.648;2023-06-22T10:00:48;8.75;;;5.65;;
71108;SDS011;59614;51.012;-1.648;2023-06-22T10:03:13;8.07;;;4.97;;
71108;SDS011;59614;51.012;-1.648;2023-06-22T10:05:39;8.25;;;4.90;;
71108;SDS011;59614;51.012;-1.648;2023-06-22T10:08:04;7.55;;;4.88;;
71108;SDS011;59614;51.012;-1.648;2023-06-22T10:10:30;8.00;;;5.07;;
71108;SDS011;59614;51.012;-1.648;2023-06-22T10:12:56;7.15;;;4.68;;
71108;SDS011;59614;51.012;-1.648;2023-06-22T10:17:48;7.75;;;4.15;;
71108;SDS011;59614;51.012;-1.648;2023-06-22T10:20:13;10.80;;;4.18;;
71108;SDS011;59614;51.012;-1.648;2023-06-22T10:22:40;6.70;;;4.13;;
71108;SDS011;59614;51.012;-1.648;2023-06-22T10:25:06;7.80;;;4.50;;
71108;SDS011;59614;51.012;-1.648;2023-06-22T10:27:32;7.30;;;4.47;;
71108;SDS011;59614;51.012;-1.648;2023-06-22T10:29:58;11.20;;;5.00;;
71108;SDS011;59614;51.012;-1.648;2023-06-22T10:32:24;7.65;;;4.78;;
71108;SDS011;59614;51.012;-1.648;2023-06-22T10:34:49;7.03;;;4.40;;
71108;SDS011;59614;51.012;-1.648;2023-06-22T10:37:14;7.53;;;4.10;;
71108;SDS011;59614;51.012;-1.648;2023-06-22T10:39:40;7.80;;;4.35;;
71108;SDS011;59614;51.012;-1.648;2023-06-22T10:42:05;8.82;;;4.28;;
71108;SDS011;59614;51.012;-1.648;2023-06-22T10:44:31;10.88;;;5.05;;
71108;SDS011;59614;51.012;-1.648;2023-06-22T10:46:56;11.80;;;4.50;;
71108;SDS011;59614;51.012;-1.648;2023-06-22T10:49:22;9.02;;;4.15;;
71108;SDS011;59614;51.012;-1.648;2023-06-22T10:51:47;8.63;;;4.50;;
71108;SDS011;59614;51.012;-1.648;2023-06-22T10:54:12;7.85;;;4.28;;
71108;SDS011;59614;51.012;-1.648;2023-06-22T10:56:39;9.15;;;4.43;;
71108;SDS011;59614;51.012;-1.648;2023-06-22T10:59:05;6.07;;;3.65;;
71108;SDS011;59614;51.012;-1.648;2023-06-22T11:01:30;6.82;;;3.72;;
71108;SDS011;59614;51.012;-1.648;2023-06-22T11:03:58;5.80;;;3.20;;
71108;SDS011;59614;51.012;-1.648;2023-06-22T11:06:24;7.03;;;3.40;;
71108;SDS011;59614;51.012;-1.648;2023-06-22T11:08:49;4.40;;;3.17;;
71108;SDS011;59614;51.012;-1.648;2023-06-22T11:11:15;5.72;;;3.22;;
71108;SDS011;59614;51.012;-1.648;2023-06-22T11:13:42;10.32;;;3.47;;
71108;SDS011;59614;51.012;-1.648;2023-06-22T11:16:08;6.53;;;3.13;;
71108;SDS011;59614;51.012;-1.648;2023-06-22T11:18:34;7.55;;;3.33;;
71108;SDS011;59614;51.012;-1.648;2023-06-22T11:21:00;11.27;;;3.80;;
71108;SDS011;59614;51.012;-1.648;2023-06-22T11:23:25;10.07;;;3.40;;
71108;SDS011;59614;51.012;-1.648;2023-06-22T11:25:52;5.75;;;3.22;;
71108;SDS011;59614;51.012;-1.648;2023-06-22T11:28:18;6.15;;;3.20;;
71108;SDS011;59614;51.012;-1.648;2023-06-22T11:30:43;5.15;;;3.40;;
71108;SDS011;59614;51.012;-1.648;2023-06-22T11:33:08;6.35;;;3.47;;
71108;SDS011;59614;51.012;-1.648;2023-06-22T11:35:34;6.50;;;3.40;;
71108;SDS011;59614;51.012;-1.648;2023-06-22T11:37:59;6.47;;;3.40;;
71108;SDS011;59614;51.012;-1.648;2023-06-22T11:40:24;5.05;;;3.60;;
71108;SDS011;59614;51.012;-1.648;2023-06-22T11:42:50;8.02;;;3.60;;
71108;SDS011;59614;51.012;-1.648;2023-06-22T11:45:15;7.32;;;3.60;;
71108;SDS011;59614;51.012;-1.648;2023-06-22T11:47:42;8.73;;;3.20;;
71108;SDS011;59614;51.012;-1.648;2023-06-22T11:50:08;5.95;;;3.20;;
71108;SDS011;59614;51.012;-1.648;2023-06-22T11:52:33;4.53;;;3.20;;
71108;SDS011;59614;51.012;-1.648;2023-06-22T11:57:28;6.47;;;3.55;;
71108;SDS011;59614;51.012;-1.648;2023-06-22T11:59:53;6.32;;;3.05;;
71108;SDS011;59614;51.012;-1.648;2023-06-22T12:02:19;6.38;;;3.35;;
71108;SDS011;59614;51.012;-1.648;2023-06-22T12:04:44;6.95;;;3.35;;
71108;SDS011;59614;51.012;-1.648;2023-06-22T12:07:10;5.40;;;3.45;;
71108;SDS011;59614;51.012;-1.648;2023-06-22T12:09:35;6.00;;;3.28;;
71108;SDS011;59614;51.012;-1.648;2023-06-22T12:12:00;6.68;;;3.30;;
71108;SDS011;59614;51.012;-1.648;2023-06-22T12:14:26;5.45;;;3.22;;
71108;SDS011;59614;51.012;-1.648;2023-06-22T12:16:51;7.88;;;3.50;;
71108;SDS011;59614;51.012;-1.648;2023-06-22T12:19:16;4.82;;;3.05;;
71108;SDS011;59614;51.012;-1.648;2023-06-22T12:21:42;4.97;;;3.20;;
71108;SDS011;59614;51.012;-1.648;2023-06-22T12:24:10;6.40;;;3.40;;
71108;SDS011;59614;51.012;-1.648;2023-06-22T12:26:35;5.97;;;3.05;;
71108;SDS011;59614;51.012;-1.648;2023-06-22T12:29:01;6.80;;;3.13;;
71108;SDS011;59614;51.012;-1.648;2023-06-22T12:31:26;6.10;;;3.40;;
71108;SDS011;59614;51.012;-1.648;2023-06-22T12:33:52;7.03;;;3.22;;
71108;SDS011;59614;51.012;-1.648;2023-06-22T12:36:17;5.85;;;3.00;;
71108;SDS011;59614;51.012;-1.648;2023-06-22T12:38:42;7.38;;;3.15;;
71108;SDS011;59614;51.012;-1.648;2023-06-22T12:41:08;6.47;;;3.58;;
71108;SDS011;59614;51.012;-1.648;2023-06-22T12:43:33;6.68;;;3.50;;
71108;SDS011;59614;51.012;-1.648;2023-06-22T12:45:59;6.75;;;3.47;;
71108;SDS011;59614;51.012;-1.648;2023-06-22T12:48:25;6.88;;;3.00;;
71108;SDS011;59614;51.012;-1.648;2023-06-22T12:50:51;7.13;;;3.40;;
71108;SDS011;59614;51.012;-1.648;2023-06-22T12:53:16;7.28;;;3.25;;
71108;SDS011;59614;51.012;-1.648;2023-06-22T12:55:42;8.05;;;3.20;;
71108;SDS011;59614;51.012;-1.648;2023-06-22T12:58:07;7.25;;;3.35;;
71108;SDS011;59614;51.012;-1.648;2023-06-22T13:00:33;8.25;;;3.58;;
71108;SDS011;59614;51.012;-1.648;2023-06-22T13:02:58;7.13;;;3.17;;
71108;SDS011;59614;51.012;-1.648;2023-06-22T13:05:23;5.63;;;3.05;;
71108;SDS011;59614;51.012;-1.648;2023-06-22T13:07:49;5.30;;;3.28;;
71108;SDS011;59614;51.012;-1.648;2023-06-22T13:10:14;7.20;;;3.13;;
71108;SDS011;59614;51.012;-1.648;2023-06-22T13:12:40;5.75;;;3.22;;
71108;SDS011;59614;51.012;-1.648;2023-06-22T13:15:05;5.30;;;3.10;;
71108;SDS011;59614;51.012;-1.648;2023-06-22T13:17:31;5.05;;;3.00;;
71108;SDS011;59614;51.012;-1.648;2023-06-22T13:19:56;8.15;;;3.83;;
71108;SDS011;59614;51.012;-1.648;2023-06-22T13:22:29;5.72;;;2.90;;
71108;SDS011;59614;51.012;-1.648;2023-06-22T13:24:55;4.70;;;3.28;;
71108;SDS011;59614;51.012;-1.648;2023-06-22T13:27:21;6.03;;;3.25;;
71108;SDS011;59614;51.012;-1.648;2023-06-22T13:29:46;4.10;;;2.80;;
71108;SDS011;59614;51.012;-1.648;2023-06-22T13:32:12;6.28;;;3.10;;
71108;SDS011;59614;51.012;-1.648;2023-06-22T13:34:37;5.97;;;3.00;;
71108;SDS011;59614;51.012;-1.648;2023-06-22T13:37:02;6.72;;;2.85;;
71108;SDS011;59614;51.012;-1.648;2023-06-22T13:39:28;6.28;;;2.88;;
71108;SDS011;59614;51.012;-1.648;2023-06-22T13:41:53;5.97;;;3.10;;
71108;SDS011;59614;51.012;-1.648;2023-06-22T13:44:19;6.20;;;3.30;;
71108;SDS011;59614;51.012;-1.648;2023-06-22T13:46:46;4.10;;;2.70;;
71108;SDS011;59614;51.012;-1.648;2023-06-22T13:49:11;8.50;;;3.38;;
71108;SDS011;59614;51.012;-1.648;2023-06-22T13:51:37;6.38;;;3.30;;
71108;SDS011;59614;51.012;-1.648;2023-06-22T13:54:02;8.35;;;3.13;;
71108;SDS011;59614;51.012;-1.648;2023-06-22T13:56:28;5.35;;;3.08;;
71108;SDS011;59614;51.012;-1.648;2023-06-22T13:58:53;5.38;;;3.22;;
71108;SDS011;59614;51.012;-1.648;2023-06-22T14:01:18;6.22;;;3.13;;
71108;SDS011;59614;51.012;-1.648;2023-06-22T14:03:44;4.93;;;3.13;;
71108;SDS011;59614;51.012;-1.648;2023-06-22T14:06:11;5.85;;;3.08;;
71108;SDS011;59614;51.012;-1.648;2023-06-22T14:08:37;7.07;;;3.15;;
71108;SDS011;59614;51.012;-1.648;2023-06-22T14:11:02;4.20;;;2.85;;
71108;SDS011;59614;51.012;-1.648;2023-06-22T14:13:28;6.32;;;2.90;;
71108;SDS011;59614;51.012;-1.648;2023-06-22T14:15:53;5.13;;;3.17;;
71108;SDS011;59614;51.012;-1.648;2023-06-22T14:18:19;5.38;;;3.00;;
71108;SDS011;59614;51.012;-1.648;2023-06-22T14:20:44;3.95;;;2.80;;
71108;SDS011;59614;51.012;-1.648;2023-06-22T14:23:10;7.00;;;3.35;;
71108;SDS011;59614;51.012;-1.648;2023-06-22T14:25:35;6.93;;;3.37;;
71108;SDS011;59614;51.012;-1.648;2023-06-22T14:28:00;4.33;;;3.00;;
71108;SDS011;59614;51.012;-1.648;2023-06-22T14:30:26;6.28;;;3.13;;
71108;SDS011;59614;51.012;-1.648;2023-06-22T14:32:51;5.37;;;3.00;;
71108;SDS011;59614;51.012;-1.648;2023-06-22T14:35:17;6.20;;;3.13;;
71108;SDS011;59614;51.012;-1.648;2023-06-22T14:37:42;5.33;;;3.30;;